sensor_id;sensor_type;location;lat;lon;timestamp;temperature;humidity
16503;DHT22;53067;48.114;11.694;2022-12-07T00:01:29;5.50;81.90
16503;DHT22;53067;48.114;11.694;2022-12-07T00:03:59;5.50;81.90
16503;DHT22;53067;48.114;11.694;2022-12-07T00:06:35;5.50;81.80
16503;DHT22;53067;48.114;11.694;2022-12-07T00:09:04;5.50;81.90
16503;DHT22;53067;48.114;11.694;2022-12-07T00:11:33;5.50;82.00
16503;DHT22;53067;48.114;11.694;2022-12-07T00:14:02;5.40;82.10
16503;DHT22;53067;48.114;11.694;2022-12-07T00:16:32;5.40;82.30
16503;DHT22;53067;48.114;11.694;2022-12-07T00:19:02;5.40;82.40
16503;DHT22;53067;48.114;11.694;2022-12-07T00:21:32;5.40;82.30
16503;DHT22;53067;48.114;11.694;2022-12-07T00:24:01;5.40;82.30
16503;DHT22;53067;48.114;11.694;2022-12-07T00:26:39;5.30;82.40
16503;DHT22;53067;48.114;11.694;2022-12-07T00:29:17;5.30;82.50
16503;DHT22;53067;48.114;11.694;2022-12-07T00:31:41;5.30;82.30
16503;DHT22;53067;48.114;11.694;2022-12-07T00:34:12;5.40;82.50
16503;DHT22;53067;48.114;11.694;2022-12-07T00:36:39;5.40;82.50
16503;DHT22;53067;48.114;11.694;2022-12-07T00:39:06;5.40;82.30
16503;DHT22;53067;48.114;11.694;2022-12-07T00:41:35;5.40;82.20
16503;DHT22;53067;48.114;11.694;2022-12-07T00:44:02;5.40;82.10
16503;DHT22;53067;48.114;11.694;2022-12-07T00:46:30;5.40;82.20
16503;DHT22;53067;48.114;11.694;2022-12-07T00:48:58;5.40;81.70
16503;DHT22;53067;48.114;11.694;2022-12-07T00:51:26;5.40;81.50
16503;DHT22;53067;48.114;11.694;2022-12-07T00:53:54;5.40;81.10
16503;DHT22;53067;48.114;11.694;2022-12-07T00:56:24;5.40;81.20
16503;DHT22;53067;48.114;11.694;2022-12-07T00:59:00;5.30;81.10
16503;DHT22;53067;48.114;11.694;2022-12-07T01:01:31;5.30;81.30
16503;DHT22;53067;48.114;11.694;2022-12-07T01:03:58;5.30;81.30
16503;DHT22;53067;48.114;11.694;2022-12-07T01:06:29;5.30;81.10
16503;DHT22;53067;48.114;11.694;2022-12-07T01:08:57;5.30;81.00
16503;DHT22;53067;48.114;11.694;2022-12-07T01:11:27;5.20;80.80
16503;DHT22;53067;48.114;11.694;2022-12-07T01:13:56;5.20;81.00
16503;DHT22;53067;48.114;11.694;2022-12-07T01:16:26;5.20;81.60
16503;DHT22;53067;48.114;11.694;2022-12-07T01:18:56;5.20;80.90
16503;DHT22;53067;48.114;11.694;2022-12-07T01:21:29;5.20;81.00
16503;DHT22;53067;48.114;11.694;2022-12-07T01:23:59;5.20;81.00
16503;DHT22;53067;48.114;11.694;2022-12-07T01:26:27;5.30;81.00
16503;DHT22;53067;48.114;11.694;2022-12-07T01:28:55;5.30;80.90
16503;DHT22;53067;48.114;11.694;2022-12-07T01:31:25;5.30;80.90
16503;DHT22;53067;48.114;11.694;2022-12-07T01:33:55;5.30;80.80
16503;DHT22;53067;48.114;11.694;2022-12-07T01:36:29;5.30;80.70
16503;DHT22;53067;48.114;11.694;2022-12-07T01:38:59;5.30;80.60
16503;DHT22;53067;48.114;11.694;2022-12-07T01:41:30;5.30;80.80
16503;DHT22;53067;48.114;11.694;2022-12-07T01:46:58;5.30;80.60
16503;DHT22;53067;48.114;11.694;2022-12-07T01:49:40;5.30;80.60
16503;DHT22;53067;48.114;11.694;2022-12-07T01:52:25;5.20;80.50
16503;DHT22;53067;48.114;11.694;2022-12-07T01:54:56;5.20;80.80
16503;DHT22;53067;48.114;11.694;2022-12-07T01:57:24;5.20;80.90
16503;DHT22;53067;48.114;11.694;2022-12-07T01:59:52;5.10;81.00
16503;DHT22;53067;48.114;11.694;2022-12-07T02:02:27;5.20;81.30
16503;DHT22;53067;48.114;11.694;2022-12-07T02:04:52;5.20;81.20
16503;DHT22;53067;48.114;11.694;2022-12-07T02:07:21;5.20;81.30
16503;DHT22;53067;48.114;11.694;2022-12-07T02:09:50;5.10;81.10
16503;DHT22;53067;48.114;11.694;2022-12-07T02:12:18;5.20;81.40
16503;DHT22;53067;48.114;11.694;2022-12-07T02:14:46;5.20;81.50
16503;DHT22;53067;48.114;11.694;2022-12-07T02:17:28;5.20;81.40
16503;DHT22;53067;48.114;11.694;2022-12-07T02:20:11;5.20;81.40
16503;DHT22;53067;48.114;11.694;2022-12-07T02:25:39;5.20;81.40
16503;DHT22;53067;48.114;11.694;2022-12-07T02:28:09;5.30;81.40
16503;DHT22;53067;48.114;11.694;2022-12-07T02:30:40;5.20;81.20
16503;DHT22;53067;48.114;11.694;2022-12-07T02:33:11;5.20;81.30
16503;DHT22;53067;48.114;11.694;2022-12-07T02:35:43;5.20;81.30
16503;DHT22;53067;48.114;11.694;2022-12-07T02:38:29;5.20;81.30
16503;DHT22;53067;48.114;11.694;2022-12-07T02:41:22;5.20;82.10
16503;DHT22;53067;48.114;11.694;2022-12-07T02:43:54;5.20;81.50
16503;DHT22;53067;48.114;11.694;2022-12-07T02:46:26;5.30;81.40
16503;DHT22;53067;48.114;11.694;2022-12-07T02:48:51;5.30;81.40
16503;DHT22;53067;48.114;11.694;2022-12-07T02:51:19;5.30;81.10
16503;DHT22;53067;48.114;11.694;2022-12-07T02:53:46;5.30;80.80
16503;DHT22;53067;48.114;11.694;2022-12-07T02:56:25;5.20;81.00
16503;DHT22;53067;48.114;11.694;2022-12-07T03:01:30;5.20;81.50
16503;DHT22;53067;48.114;11.694;2022-12-07T03:06:36;5.20;81.40
16503;DHT22;53067;48.114;11.694;2022-12-07T03:09:15;5.20;81.30
16503;DHT22;53067;48.114;11.694;2022-12-07T03:11:45;5.30;81.40
16503;DHT22;53067;48.114;11.694;2022-12-07T03:14:25;5.30;81.10
16503;DHT22;53067;48.114;11.694;2022-12-07T03:17:07;5.30;81.10
16503;DHT22;53067;48.114;11.694;2022-12-07T03:19:35;5.30;81.10
16503;DHT22;53067;48.114;11.694;2022-12-07T03:22:06;5.40;81.30
16503;DHT22;53067;48.114;11.694;2022-12-07T03:24:42;5.30;81.20
16503;DHT22;53067;48.114;11.694;2022-12-07T03:27:13;5.40;81.10
16503;DHT22;53067;48.114;11.694;2022-12-07T03:29:53;5.40;81.80
16503;DHT22;53067;48.114;11.694;2022-12-07T03:35:01;5.40;81.30
16503;DHT22;53067;48.114;11.694;2022-12-07T03:37:22;5.40;81.40
16503;DHT22;53067;48.114;11.694;2022-12-07T03:42:45;5.40;81.40
16503;DHT22;53067;48.114;11.694;2022-12-07T03:45:14;5.40;81.00
16503;DHT22;53067;48.114;11.694;2022-12-07T03:48:08;5.40;81.50
16503;DHT22;53067;48.114;11.694;2022-12-07T03:50:42;5.40;81.50
16503;DHT22;53067;48.114;11.694;2022-12-07T03:53:13;5.40;81.80
16503;DHT22;53067;48.114;11.694;2022-12-07T03:55:48;5.40;81.50
16503;DHT22;53067;48.114;11.694;2022-12-07T03:58:18;5.40;81.50
16503;DHT22;53067;48.114;11.694;2022-12-07T04:00:47;5.40;81.50
16503;DHT22;53067;48.114;11.694;2022-12-07T04:03:16;5.40;81.50
16503;DHT22;53067;48.114;11.694;2022-12-07T04:05:44;5.40;81.40
16503;DHT22;53067;48.114;11.694;2022-12-07T04:08:12;5.40;81.50
16503;DHT22;53067;48.114;11.694;2022-12-07T04:10:39;5.40;81.60
16503;DHT22;53067;48.114;11.694;2022-12-07T04:13:07;5.40;81.70
16503;DHT22;53067;48.114;11.694;2022-12-07T04:15:34;5.40;81.50
16503;DHT22;53067;48.114;11.694;2022-12-07T04:18:02;5.40;81.50
16503;DHT22;53067;48.114;11.694;2022-12-07T04:20:29;5.40;81.20
16503;DHT22;53067;48.114;11.694;2022-12-07T04:22:57;5.30;81.40
16503;DHT22;53067;48.114;11.694;2022-12-07T04:25:25;5.30;81.40
16503;DHT22;53067;48.114;11.694;2022-12-07T04:27:53;5.30;81.60
16503;DHT22;53067;48.114;11.694;2022-12-07T04:30:20;5.30;81.50
16503;DHT22;53067;48.114;11.694;2022-12-07T04:32:48;5.30;81.70
16503;DHT22;53067;48.114;11.694;2022-12-07T04:35:15;5.30;81.80
16503;DHT22;53067;48.114;11.694;2022-12-07T04:37:43;5.30;81.70
16503;DHT22;53067;48.114;11.694;2022-12-07T04:40:30;5.30;81.70
16503;DHT22;53067;48.114;11.694;2022-12-07T04:42:57;5.30;80.80
16503;DHT22;53067;48.114;11.694;2022-12-07T04:45:25;5.30;81.20
16503;DHT22;53067;48.114;11.694;2022-12-07T04:47:52;5.30;81.40
16503;DHT22;53067;48.114;11.694;2022-12-07T04:50:20;5.30;81.70
16503;DHT22;53067;48.114;11.694;2022-12-07T04:52:47;5.30;81.60
16503;DHT22;53067;48.114;11.694;2022-12-07T04:55:15;5.30;81.70
16503;DHT22;53067;48.114;11.694;2022-12-07T04:57:43;5.30;81.60
16503;DHT22;53067;48.114;11.694;2022-12-07T05:00:10;5.30;81.70
16503;DHT22;53067;48.114;11.694;2022-12-07T05:02:38;5.30;81.80
16503;DHT22;53067;48.114;11.694;2022-12-07T05:05:06;5.20;81.70
16503;DHT22;53067;48.114;11.694;2022-12-07T05:07:34;5.30;82.10
16503;DHT22;53067;48.114;11.694;2022-12-07T05:10:01;5.20;82.10
16503;DHT22;53067;48.114;11.694;2022-12-07T05:12:29;5.20;82.10
16503;DHT22;53067;48.114;11.694;2022-12-07T05:14:56;5.10;82.50
16503;DHT22;53067;48.114;11.694;2022-12-07T05:17:24;5.10;82.80
16503;DHT22;53067;48.114;11.694;2022-12-07T05:19:51;5.10;83.00
16503;DHT22;53067;48.114;11.694;2022-12-07T05:22:19;5.10;83.30
16503;DHT22;53067;48.114;11.694;2022-12-07T05:24:47;5.10;83.10
16503;DHT22;53067;48.114;11.694;2022-12-07T05:27:15;5.10;83.60
16503;DHT22;53067;48.114;11.694;2022-12-07T05:29:42;5.10;83.30
16503;DHT22;53067;48.114;11.694;2022-12-07T05:32:10;5.10;83.60
16503;DHT22;53067;48.114;11.694;2022-12-07T05:34:37;5.10;83.70
16503;DHT22;53067;48.114;11.694;2022-12-07T05:37:05;5.10;83.60
16503;DHT22;53067;48.114;11.694;2022-12-07T05:39:33;5.10;83.60
16503;DHT22;53067;48.114;11.694;2022-12-07T05:42:00;5.10;83.60
16503;DHT22;53067;48.114;11.694;2022-12-07T05:44:42;5.00;83.70
16503;DHT22;53067;48.114;11.694;2022-12-07T05:47:10;5.00;83.70
16503;DHT22;53067;48.114;11.694;2022-12-07T05:49:38;5.00;83.80
16503;DHT22;53067;48.114;11.694;2022-12-07T05:52:06;5.00;84.60
16503;DHT22;53067;48.114;11.694;2022-12-07T05:54:34;5.00;83.90
16503;DHT22;53067;48.114;11.694;2022-12-07T05:57:01;5.00;84.10
16503;DHT22;53067;48.114;11.694;2022-12-07T05:59:29;5.00;84.00
16503;DHT22;53067;48.114;11.694;2022-12-07T06:02:05;5.00;84.20
16503;DHT22;53067;48.114;11.694;2022-12-07T06:04:35;5.00;84.20
16503;DHT22;53067;48.114;11.694;2022-12-07T06:07:04;5.00;84.40
16503;DHT22;53067;48.114;11.694;2022-12-07T06:09:33;4.90;84.40
16503;DHT22;53067;48.114;11.694;2022-12-07T06:12:01;4.90;84.40
16503;DHT22;53067;48.114;11.694;2022-12-07T06:14:47;4.90;84.40
16503;DHT22;53067;48.114;11.694;2022-12-07T06:17:15;4.90;84.40
16503;DHT22;53067;48.114;11.694;2022-12-07T06:19:43;4.90;84.10
16503;DHT22;53067;48.114;11.694;2022-12-07T06:22:11;4.90;83.70
16503;DHT22;53067;48.114;11.694;2022-12-07T06:24:39;5.00;83.40
16503;DHT22;53067;48.114;11.694;2022-12-07T06:27:07;5.00;83.60
16503;DHT22;53067;48.114;11.694;2022-12-07T06:29:35;5.00;83.50
16503;DHT22;53067;48.114;11.694;2022-12-07T06:32:03;5.00;82.70
16503;DHT22;53067;48.114;11.694;2022-12-07T06:34:31;5.00;82.80
16503;DHT22;53067;48.114;11.694;2022-12-07T06:36:59;5.00;82.50
16503;DHT22;53067;48.114;11.694;2022-12-07T06:39:28;5.00;82.40
16503;DHT22;53067;48.114;11.694;2022-12-07T06:41:56;5.00;82.50
16503;DHT22;53067;48.114;11.694;2022-12-07T06:44:25;4.90;81.80
16503;DHT22;53067;48.114;11.694;2022-12-07T06:46:52;4.90;82.00
16503;DHT22;53067;48.114;11.694;2022-12-07T06:49:20;4.90;81.70
16503;DHT22;53067;48.114;11.694;2022-12-07T06:51:48;4.90;82.10
16503;DHT22;53067;48.114;11.694;2022-12-07T06:54:16;4.90;81.90
16503;DHT22;53067;48.114;11.694;2022-12-07T06:56:43;4.90;82.00
16503;DHT22;53067;48.114;11.694;2022-12-07T06:59:11;4.90;82.20
16503;DHT22;53067;48.114;11.694;2022-12-07T07:01:38;4.90;82.30
16503;DHT22;53067;48.114;11.694;2022-12-07T07:04:06;4.80;82.70
16503;DHT22;53067;48.114;11.694;2022-12-07T07:06:33;4.80;83.80
16503;DHT22;53067;48.114;11.694;2022-12-07T07:09:01;4.80;82.90
16503;DHT22;53067;48.114;11.694;2022-12-07T07:11:29;4.80;82.60
16503;DHT22;53067;48.114;11.694;2022-12-07T07:13:56;4.70;82.40
16503;DHT22;53067;48.114;11.694;2022-12-07T07:16:25;4.70;82.70
16503;DHT22;53067;48.114;11.694;2022-12-07T07:18:53;4.70;82.80
16503;DHT22;53067;48.114;11.694;2022-12-07T07:21:20;4.70;83.00
16503;DHT22;53067;48.114;11.694;2022-12-07T18:54:50;2.00;91.30
16503;DHT22;53067;48.114;11.694;2022-12-07T18:57:17;2.00;91.80
16503;DHT22;53067;48.114;11.694;2022-12-07T18:59:45;2.20;92.00
16503;DHT22;53067;48.114;11.694;2022-12-07T19:02:13;2.50;91.30
16503;DHT22;53067;48.114;11.694;2022-12-07T19:04:42;2.80;90.80
16503;DHT22;53067;48.114;11.694;2022-12-07T19:07:10;3.10;90.30
16503;DHT22;53067;48.114;11.694;2022-12-07T19:09:37;3.30;89.80
16503;DHT22;53067;48.114;11.694;2022-12-07T19:12:06;3.40;88.50
16503;DHT22;53067;48.114;11.694;2022-12-07T19:14:35;3.60;87.60
16503;DHT22;53067;48.114;11.694;2022-12-07T19:17:06;3.70;87.10
16503;DHT22;53067;48.114;11.694;2022-12-07T19:19:39;3.90;86.30
16503;DHT22;53067;48.114;11.694;2022-12-07T19:22:10;3.90;85.50
16503;DHT22;53067;48.114;11.694;2022-12-07T19:24:36;4.00;85.00
16503;DHT22;53067;48.114;11.694;2022-12-07T19:27:06;4.00;84.90
16503;DHT22;53067;48.114;11.694;2022-12-07T19:29:34;4.10;84.70
16503;DHT22;53067;48.114;11.694;2022-12-07T19:32:04;4.20;84.10
16503;DHT22;53067;48.114;11.694;2022-12-07T19:34:33;4.20;83.70
16503;DHT22;53067;48.114;11.694;2022-12-07T19:37:01;4.20;83.30
16503;DHT22;53067;48.114;11.694;2022-12-07T19:39:28;4.30;83.10
16503;DHT22;53067;48.114;11.694;2022-12-07T19:41:56;4.30;83.10
16503;DHT22;53067;48.114;11.694;2022-12-07T19:44:25;4.30;83.00
16503;DHT22;53067;48.114;11.694;2022-12-07T19:46:58;4.40;82.10
16503;DHT22;53067;48.114;11.694;2022-12-07T19:49:27;4.40;82.30
16503;DHT22;53067;48.114;11.694;2022-12-07T19:52:01;4.40;82.30
16503;DHT22;53067;48.114;11.694;2022-12-07T19:54:27;4.40;82.10
16503;DHT22;53067;48.114;11.694;2022-12-07T19:56:59;4.40;82.00
16503;DHT22;53067;48.114;11.694;2022-12-07T19:59:28;4.40;82.00
16503;DHT22;53067;48.114;11.694;2022-12-07T20:01:56;4.30;82.20
16503;DHT22;53067;48.114;11.694;2022-12-07T20:04:26;4.30;82.00
16503;DHT22;53067;48.114;11.694;2022-12-07T20:06:56;4.40;82.00
16503;DHT22;53067;48.114;11.694;2022-12-07T20:09:24;4.40;81.60
16503;DHT22;53067;48.114;11.694;2022-12-07T20:11:52;4.40;81.70
16503;DHT22;53067;48.114;11.694;2022-12-07T20:14:38;4.40;81.60
16503;DHT22;53067;48.114;11.694;2022-12-07T20:17:06;4.40;81.70
16503;DHT22;53067;48.114;11.694;2022-12-07T20:19:35;4.40;81.80
16503;DHT22;53067;48.114;11.694;2022-12-07T20:22:05;4.40;81.80
16503;DHT22;53067;48.114;11.694;2022-12-07T20:24:32;4.40;81.80
16503;DHT22;53067;48.114;11.694;2022-12-07T20:27:02;4.40;81.70
16503;DHT22;53067;48.114;11.694;2022-12-07T20:29:30;4.40;81.70
16503;DHT22;53067;48.114;11.694;2022-12-07T20:31:58;4.40;81.70
16503;DHT22;53067;48.114;11.694;2022-12-07T20:34:27;4.30;81.70
16503;DHT22;53067;48.114;11.694;2022-12-07T20:36:55;4.30;81.80
16503;DHT22;53067;48.114;11.694;2022-12-07T20:39:23;4.30;82.00
16503;DHT22;53067;48.114;11.694;2022-12-07T20:41:51;4.30;82.10
16503;DHT22;53067;48.114;11.694;2022-12-07T20:44:36;4.30;82.00
16503;DHT22;53067;48.114;11.694;2022-12-07T20:47:04;4.30;82.10
16503;DHT22;53067;48.114;11.694;2022-12-07T20:49:33;4.20;82.10
16503;DHT22;53067;48.114;11.694;2022-12-07T20:52:00;4.30;82.30
16503;DHT22;53067;48.114;11.694;2022-12-07T20:54:28;4.30;82.40
16503;DHT22;53067;48.114;11.694;2022-12-07T20:56:56;4.30;82.40
16503;DHT22;53067;48.114;11.694;2022-12-07T20:59:23;4.20;82.40
16503;DHT22;53067;48.114;11.694;2022-12-07T21:01:51;4.20;82.40
16503;DHT22;53067;48.114;11.694;2022-12-07T21:04:18;4.20;82.40
16503;DHT22;53067;48.114;11.694;2022-12-07T21:06:46;4.30;82.40
16503;DHT22;53067;48.114;11.694;2022-12-07T21:09:13;4.30;82.30
16503;DHT22;53067;48.114;11.694;2022-12-07T21:11:41;4.30;82.30
16503;DHT22;53067;48.114;11.694;2022-12-07T21:14:08;4.20;82.30
16503;DHT22;53067;48.114;11.694;2022-12-07T21:16:36;4.20;82.20
16503;DHT22;53067;48.114;11.694;2022-12-07T21:19:04;4.20;82.10
16503;DHT22;53067;48.114;11.694;2022-12-07T21:21:33;4.30;82.20
16503;DHT22;53067;48.114;11.694;2022-12-07T21:24:02;4.30;81.90
16503;DHT22;53067;48.114;11.694;2022-12-07T21:26:32;4.30;81.90
16503;DHT22;53067;48.114;11.694;2022-12-07T21:29:02;4.30;82.10
16503;DHT22;53067;48.114;11.694;2022-12-07T21:31:30;4.30;81.90
16503;DHT22;53067;48.114;11.694;2022-12-07T21:33:57;4.30;81.90
16503;DHT22;53067;48.114;11.694;2022-12-07T21:36:27;4.30;81.80
16503;DHT22;53067;48.114;11.694;2022-12-07T21:38:55;4.40;81.80
16503;DHT22;53067;48.114;11.694;2022-12-07T21:41:29;4.30;81.70
16503;DHT22;53067;48.114;11.694;2022-12-07T21:43:53;4.30;81.90
16503;DHT22;53067;48.114;11.694;2022-12-07T21:46:22;4.30;81.80
16503;DHT22;53067;48.114;11.694;2022-12-07T21:48:54;4.30;81.80
16503;DHT22;53067;48.114;11.694;2022-12-07T21:51:23;4.30;81.70
16503;DHT22;53067;48.114;11.694;2022-12-07T21:53:54;4.40;81.70
16503;DHT22;53067;48.114;11.694;2022-12-07T21:56:24;4.40;81.60
16503;DHT22;53067;48.114;11.694;2022-12-07T21:58:53;4.40;81.60
16503;DHT22;53067;48.114;11.694;2022-12-07T22:01:27;4.40;81.70
16503;DHT22;53067;48.114;11.694;2022-12-07T22:04:15;4.40;81.70
16503;DHT22;53067;48.114;11.694;2022-12-07T22:06:44;4.30;81.70
16503;DHT22;53067;48.114;11.694;2022-12-07T22:09:12;4.30;81.80
16503;DHT22;53067;48.114;11.694;2022-12-07T22:11:40;4.30;82.10
16503;DHT22;53067;48.114;11.694;2022-12-07T22:14:08;4.30;82.00
16503;DHT22;53067;48.114;11.694;2022-12-07T22:16:54;4.30;82.00
16503;DHT22;53067;48.114;11.694;2022-12-07T22:19:23;4.30;81.80
16503;DHT22;53067;48.114;11.694;2022-12-07T22:21:50;4.30;81.80
16503;DHT22;53067;48.114;11.694;2022-12-07T22:24:18;4.30;81.60
16503;DHT22;53067;48.114;11.694;2022-12-07T22:26:45;4.30;81.80
16503;DHT22;53067;48.114;11.694;2022-12-07T22:29:13;4.40;82.00
16503;DHT22;53067;48.114;11.694;2022-12-07T22:31:41;4.30;81.70
16503;DHT22;53067;48.114;11.694;2022-12-07T22:34:16;4.30;81.90
16503;DHT22;53067;48.114;11.694;2022-12-07T22:36:44;4.30;82.00
16503;DHT22;53067;48.114;11.694;2022-12-07T22:39:12;4.20;81.90
16503;DHT22;53067;48.114;11.694;2022-12-07T22:41:40;4.30;82.00
16503;DHT22;53067;48.114;11.694;2022-12-07T22:44:09;4.30;82.20
16503;DHT22;53067;48.114;11.694;2022-12-07T22:46:37;4.30;82.30
16503;DHT22;53067;48.114;11.694;2022-12-07T22:49:05;4.20;82.20
16503;DHT22;53067;48.114;11.694;2022-12-07T22:51:35;4.20;82.10
16503;DHT22;53067;48.114;11.694;2022-12-07T22:54:04;4.20;82.10
16503;DHT22;53067;48.114;11.694;2022-12-07T22:56:34;4.20;82.20
16503;DHT22;53067;48.114;11.694;2022-12-07T22:59:04;4.20;82.10
16503;DHT22;53067;48.114;11.694;2022-12-07T23:01:32;4.20;82.00
16503;DHT22;53067;48.114;11.694;2022-12-07T23:04:20;4.20;81.90
16503;DHT22;53067;48.114;11.694;2022-12-07T23:06:48;4.20;82.00
16503;DHT22;53067;48.114;11.694;2022-12-07T23:09:16;4.20;82.10
16503;DHT22;53067;48.114;11.694;2022-12-07T23:11:43;4.30;82.10
16503;DHT22;53067;48.114;11.694;2022-12-07T23:14:32;4.20;81.90
16503;DHT22;53067;48.114;11.694;2022-12-07T23:17:00;4.30;81.90
16503;DHT22;53067;48.114;11.694;2022-12-07T23:19:28;4.20;81.80
16503;DHT22;53067;48.114;11.694;2022-12-07T23:21:56;4.20;81.90
16503;DHT22;53067;48.114;11.694;2022-12-07T23:24:23;4.30;82.70
16503;DHT22;53067;48.114;11.694;2022-12-07T23:26:51;4.20;81.90
16503;DHT22;53067;48.114;11.694;2022-12-07T23:29:19;4.20;81.90
16503;DHT22;53067;48.114;11.694;2022-12-07T23:31:47;4.20;82.10
16503;DHT22;53067;48.114;11.694;2022-12-07T23:34:34;4.20;82.80
16503;DHT22;53067;48.114;11.694;2022-12-07T23:37:02;4.20;81.90
16503;DHT22;53067;48.114;11.694;2022-12-07T23:39:29;4.30;82.00
16503;DHT22;53067;48.114;11.694;2022-12-07T23:41:57;4.30;81.90
16503;DHT22;53067;48.114;11.694;2022-12-07T23:44:24;4.20;82.10
16503;DHT22;53067;48.114;11.694;2022-12-07T23:46:52;4.20;82.10
16503;DHT22;53067;48.114;11.694;2022-12-07T23:49:19;4.30;82.00
16503;DHT22;53067;48.114;11.694;2022-12-07T23:51:47;4.20;82.00
16503;DHT22;53067;48.114;11.694;2022-12-07T23:54:14;4.20;82.00
16503;DHT22;53067;48.114;11.694;2022-12-07T23:56:42;4.30;82.10
16503;DHT22;53067;48.114;11.694;2022-12-07T23:59:12;4.20;82.00
